Time;durP1;ratioP1;P1;durP2;ratioP2;P2;SDS_P1;SDS_P2;PMS_P1;PMS_P2;Temp;Humidity;BMP_temperature;BMP_pressure;BME280_temperature;BME280_humidity;BME280_pressure;Samples;Min_cycle;Max_cycle;Signal;HPM_P1;HPM_P2
2022/07/15 00:00:11;;;;;;;;;;;;;;;21.64;75.86;97034.67;596809;237;67211;-72
2022/07/15 00:02:39;;;;;;;;;;;;;;;21.64;75.85;97027.45;596773;237;64989;-72
2022/07/15 00:05:08;;;;;;;;;;;;;;;21.64;75.89;97032.80;596805;237;63188;-72
2022/07/15 00:07:36;;;;;;;;;;;;;;;21.63;75.89;97027.70;596817;237;67242;-72
2022/07/15 00:10:23;;;;;;;;;;;;;;;21.64;75.92;97037.34;596871;237;66504;-72
2022/07/15 00:12:48;;;;;;;;;;;;;;;21.64;75.83;97037.34;596737;235;62845;-72
2022/07/15 00:15:16;;;;;;;;;;;;;;;21.64;75.82;97032.00;596629;236;64574;-72
2022/07/15 00:17:44;;;;;;;;;;;;;;;21.63;75.88;97036.52;596815;237;67114;-72
2022/07/15 00:20:12;;;;;;;;;;;;;;;21.63;75.85;97025.83;596797;237;65129;-72
2022/07/15 00:22:40;;;;;;;;;;;;;;;21.64;75.90;97034.67;596783;237;66857;-73
2022/07/15 00:25:09;;;;;;;;;;;;;;;21.64;75.89;97029.33;596907;237;66803;-72
2022/07/15 00:27:37;;;;;;;;;;;;;;;21.63;75.88;97028.50;596828;237;65067;-66
2022/07/15 00:30:05;;;;;;;;;;;;;;;21.63;75.96;97025.03;596823;237;67565;-66
2022/07/15 00:32:32;;;;;;;;;;;;;;;21.62;75.90;97026.91;596811;237;67199;-66
2022/07/15 00:35:00;;;;;;;;;;;;;;;21.62;75.84;97021.56;596789;237;65701;-66
2022/07/15 00:37:27;;;;;;;;;;;;;;;21.63;75.98;97017.01;596848;237;64571;-66
2022/07/15 00:39:55;;;;;;;;;;;;;;;21.63;75.93;97017.01;596754;237;66864;-66
2022/07/15 00:45:10;;;;;;;;;;;;;;;21.63;75.80;97017.80;596798;237;67535;-67
2022/07/15 00:47:37;;;;;;;;;;;;;;;21.63;75.88;97008.98;596770;237;67136;-68
2022/07/15 00:50:05;;;;;;;;;;;;;;;21.63;75.85;97006.31;596804;237;65028;-67
2022/07/15 00:52:34;;;;;;;;;;;;;;;21.62;75.85;97005.52;596836;237;67099;-67
2022/07/15 00:55:02;;;;;;;;;;;;;;;21.62;75.90;97005.52;597414;235;67057;-67
2022/07/15 00:57:30;;;;;;;;;;;;;;;21.63;75.90;97006.31;603706;235;65169;-67
2022/07/15 01:00:00;;;;;;;;;;;;;;;21.63;75.97;97006.31;603728;235;67021;-65
2022/07/15 01:02:27;;;;;;;;;;;;;;;21.63;76.04;97003.64;603724;235;67011;-66
2022/07/15 01:04:55;;;;;;;;;;;;;;;21.63;75.98;97012.45;603766;235;62751;-65
2022/07/15 01:07:22;;;;;;;;;;;;;;;21.63;76.02;97011.66;603676;235;66790;-66
2022/07/15 01:09:50;;;;;;;;;;;;;;;21.63;75.97;97006.31;603715;235;67271;-65
2022/07/15 01:12:18;;;;;;;;;;;;;;;21.63;75.88;97011.66;603708;235;65059;-65
2022/07/15 01:14:45;;;;;;;;;;;;;;;21.62;75.89;97005.52;603668;235;67356;-66
2022/07/15 01:17:13;;;;;;;;;;;;;;;21.63;75.93;97000.96;603778;235;64927;-66
2022/07/15 01:19:42;;;;;;;;;;;;;;;21.62;75.94;97002.05;603699;235;65605;-65
2022/07/15 01:22:11;;;;;;;;;;;;;;;21.62;76.09;97002.05;603676;235;64585;-66
2022/07/15 01:24:39;;;;;;;;;;;;;;;21.63;76.12;97003.64;603730;235;67241;-66
2022/07/15 01:27:15;;;;;;;;;;;;;;;21.62;76.23;96996.70;603452;235;46175;-65
2022/07/15 01:29:42;;;;;;;;;;;;;;;21.63;76.11;96995.61;603700;235;67773;-66
2022/07/15 01:32:10;;;;;;;;;;;;;;;21.62;76.15;96988.67;603735;235;67346;-65
2022/07/15 01:34:38;;;;;;;;;;;;;;;21.62;76.10;96986.80;603696;235;65078;-66
2022/07/15 01:37:05;;;;;;;;;;;;;;;21.62;76.19;96988.67;603698;235;67070;-68
2022/07/15 01:39:35;;;;;;;;;;;;;;;21.62;76.11;96983.33;603767;235;44269;-67
2022/07/15 01:42:02;;;;;;;;;;;;;;;21.62;76.01;96989.47;603669;235;62660;-66
2022/07/15 01:44:30;;;;;;;;;;;;;;;21.62;76.13;96984.13;603761;235;67324;-66
2022/07/15 01:46:58;;;;;;;;;;;;;;;21.62;75.97;96986.00;603703;235;67617;-66
2022/07/15 01:49:32;;;;;;;;;;;;;;;21.61;75.98;96979.86;603651;235;42595;-66
2022/07/15 01:52:03;;;;;;;;;;;;;;;21.61;76.02;96987.88;603040;235;45537;-66
2022/07/15 01:54:31;;;;;;;;;;;;;;;21.62;76.00;96988.67;603664;235;66809;-67
2022/07/15 01:57:00;;;;;;;;;;;;;;;21.61;76.00;96987.88;603615;235;42217;-67
2022/07/15 01:59:29;;;;;;;;;;;;;;;21.61;76.12;96990.56;603766;235;67521;-73
2022/07/15 02:01:58;;;;;;;;;;;;;;;21.62;76.13;96986.00;603670;235;64580;-73
2022/07/15 02:04:26;;;;;;;;;;;;;;;21.61;76.19;96981.74;603653;235;65070;-73
2022/07/15 02:06:54;;;;;;;;;;;;;;;21.61;76.28;96982.53;603643;235;67085;-74
2022/07/15 02:09:22;;;;;;;;;;;;;;;21.62;76.42;96981.45;603680;235;67100;-73
2022/07/15 02:11:51;;;;;;;;;;;;;;;21.62;76.43;96976.09;603744;235;43421;-73
2022/07/15 02:14:20;;;;;;;;;;;;;;;21.62;76.29;96972.63;603626;235;43517;-73
2022/07/15 02:16:49;;;;;;;;;;;;;;;21.60;76.35;96970.22;603646;235;67828;-73
2022/07/15 02:19:18;;;;;;;;;;;;;;;21.61;76.37;96968.37;603648;235;44129;-73
2022/07/15 02:21:47;;;;;;;;;;;;;;;21.61;76.39;96968.37;603605;235;65778;-73
2022/07/15 02:24:15;;;;;;;;;;;;;;;21.61;76.42;96971.84;603724;235;67135;-73
2022/07/15 02:26:44;;;;;;;;;;;;;;;21.61;76.27;96977.19;603656;235;62535;-73
2022/07/15 02:29:12;;;;;;;;;;;;;;;21.61;76.25;96987.88;603650;235;67094;-73
2022/07/15 02:31:40;;;;;;;;;;;;;;;21.62;76.32;96977.98;603694;235;67074;-67
2022/07/15 02:34:07;;;;;;;;;;;;;;;21.61;76.24;96987.09;603691;235;61505;-66
2022/07/15 02:36:36;;;;;;;;;;;;;;;21.61;76.22;96993.23;603682;235;67531;-67
2022/07/15 02:39:04;;;;;;;;;;;;;;;21.61;76.21;96987.09;603768;235;64803;-67
2022/07/15 02:41:33;;;;;;;;;;;;;;;21.61;76.28;96990.56;603676;235;63802;-66
2022/07/15 02:44:03;;;;;;;;;;;;;;;21.61;76.37;96995.91;603612;235;44394;-66
2022/07/15 02:46:31;;;;;;;;;;;;;;;21.61;76.27;96997.78;603649;235;64869;-66
2022/07/15 02:48:59;;;;;;;;;;;;;;;21.61;76.31;96992.44;603702;235;65067;-66
2022/07/15 02:51:26;;;;;;;;;;;;;;;21.61;76.30;96989.77;603707;235;68018;-66
2022/07/15 02:53:54;;;;;;;;;;;;;;;21.61;76.28;96995.11;603686;235;64701;-66
2022/07/15 02:56:23;;;;;;;;;;;;;;;21.61;76.37;96992.44;603635;235;65729;-66
2022/07/15 02:58:51;;;;;;;;;;;;;;;21.61;76.30;96995.11;603702;235;64991;-66
2022/07/15 03:01:19;;;;;;;;;;;;;;;21.61;76.45;96997.78;603670;235;68000;-66
2022/07/15 03:03:47;;;;;;;;;;;;;;;21.61;76.52;96997.78;603768;235;62426;-66
2022/07/15 03:06:17;;;;;;;;;;;;;;;21.60;76.46;96993.49;603563;235;48762;-66
2022/07/15 03:08:46;;;;;;;;;;;;;;;21.60;76.47;96996.96;603676;235;67029;-66
2022/07/15 03:11:14;;;;;;;;;;;;;;;21.60;76.48;96991.61;603676;235;64935;-66
2022/07/15 03:13:41;;;;;;;;;;;;;;;21.60;76.54;96990.82;603702;235;67297;-66
2022/07/15 03:16:10;;;;;;;;;;;;;;;21.61;76.46;97000.46;603729;235;64485;-72
2022/07/15 03:18:56;;;;;;;;;;;;;;;21.60;76.45;96998.84;603725;235;65902;-73
2022/07/15 03:21:43;;;;;;;;;;;;;;;21.61;76.54;96995.11;603695;235;45624;-73
2022/07/15 03:24:13;;;;;;;;;;;;;;;21.61;76.70;96998.58;603639;235;67532;-72
2022/07/15 03:26:42;;;;;;;;;;;;;;;21.59;76.67;96990.03;603653;235;64863;-72
2022/07/15 03:29:10;;;;;;;;;;;;;;;21.59;76.59;96994.58;603713;235;65101;-72
2022/07/15 03:31:39;;;;;;;;;;;;;;;21.60;76.65;96993.49;603674;235;45421;-72
2022/07/15 03:34:07;;;;;;;;;;;;;;;21.59;76.87;96994.58;596851;235;66703;-72
2022/07/15 03:36:34;;;;;;;;;;;;;;;21.59;76.78;97000.72;603612;235;67149;-73
2022/07/15 03:39:03;;;;;;;;;;;;;;;21.59;76.69;96990.03;603688;235;64771;-72
2022/07/15 03:41:32;;;;;;;;;;;;;;;21.59;76.78;96990.03;603733;235;42388;-73
2022/07/15 03:47:23;;;;;;;;;;;;;;;21.59;76.79;96994.58;603722;235;41817;-72
2022/07/15 03:49:51;;;;;;;;;;;;;;;21.60;76.84;96990.82;603614;235;65181;-72
2022/07/15 03:52:20;;;;;;;;;;;;;;;21.59;76.78;96978.53;603724;235;67052;-72
2022/07/15 03:54:48;;;;;;;;;;;;;;;21.58;76.89;96990.28;603626;235;67574;-71
2022/07/15 03:57:16;;;;;;;;;;;;;;;21.58;76.88;96987.61;603652;235;64920;-72
2022/07/15 03:59:44;;;;;;;;;;;;;;;21.58;76.93;96985.77;603664;235;67988;-72
2022/07/15 04:02:12;;;;;;;;;;;;;;;21.59;77.01;96978.53;603567;235;68090;-72
2022/07/15 04:04:40;;;;;;;;;;;;;;;21.59;77.00;96970.52;603730;235;62909;-72
2022/07/15 04:07:07;;;;;;;;;;;;;;;21.59;77.12;96973.98;603672;235;67048;-72
2022/07/15 04:09:35;;;;;;;;;;;;;;;21.59;77.12;96970.52;603651;235;67083;-72
2022/07/15 04:12:02;;;;;;;;;;;;;;;21.58;77.10;96972.39;603683;235;62898;-73
2022/07/15 04:14:30;;;;;;;;;;;;;;;21.58;77.00;96972.39;603680;235;65695;-73
2022/07/15 04:16:58;;;;;;;;;;;;;;;21.58;77.02;96972.39;603768;235;66845;-72
2022/07/15 04:19:27;;;;;;;;;;;;;;;21.58;76.86;96968.89;603564;235;46367;-72
2022/07/15 04:21:56;;;;;;;;;;;;;;;21.58;76.97;96972.39;603688;235;48010;-72
2022/07/15 04:24:24;;;;;;;;;;;;;;;21.58;76.87;96972.39;603684;235;66811;-72
2022/07/15 04:26:52;;;;;;;;;;;;;;;21.58;76.92;96977.73;603677;235;62677;-72
2022/07/15 04:29:21;;;;;;;;;;;;;;;21.58;77.03;96979.59;603482;235;64638;-72
2022/07/15 04:31:48;;;;;;;;;;;;;;;21.57;77.16;96984.14;603712;235;67246;-72
2022/07/15 04:34:17;;;;;;;;;;;;;;;21.58;77.02;96971.56;603481;235;43901;-73
2022/07/15 04:36:47;;;;;;;;;;;;;;;21.58;77.06;96976.91;603439;235;67496;-72
2022/07/15 04:39:15;;;;;;;;;;;;;;;21.59;77.36;96978.53;603669;235;64380;-72
2022/07/15 04:41:42;;;;;;;;;;;;;;;21.58;77.09;96983.09;603632;235;65097;-72
2022/07/15 04:44:10;;;;;;;;;;;;;;;21.57;77.06;96978.80;603713;235;64475;-72
2022/07/15 04:46:38;;;;;;;;;;;;;;;21.58;77.30;96977.73;603688;235;67491;-72
2022/07/15 04:52:12;;;;;;;;;;;;;;;21.58;77.25;96974.24;603628;235;67128;-72
2022/07/15 04:54:42;;;;;;;;;;;;;;;21.58;77.31;96966.22;603820;235;45796;-72
2022/07/15 04:57:11;;;;;;;;;;;;;;;21.57;77.34;96970.77;597302;235;65057;-72
2022/07/15 04:59:39;;;;;;;;;;;;;;;21.57;77.31;96970.77;597323;237;67776;-72
2022/07/15 05:02:08;;;;;;;;;;;;;;;21.57;77.31;96965.42;597316;236;43770;-72
2022/07/15 05:04:38;;;;;;;;;;;;;;;21.57;77.39;96973.45;597226;236;44001;-72
2022/07/15 05:07:08;;;;;;;;;;;;;;;21.58;77.52;96963.55;597307;237;65114;-73
2022/07/15 05:09:36;;;;;;;;;;;;;;;21.57;77.47;96964.62;597301;237;67350;-66
2022/07/15 05:12:05;;;;;;;;;;;;;;;21.57;77.29;96968.09;597304;237;65195;-66
2022/07/15 05:14:35;;;;;;;;;;;;;;;21.57;77.42;96965.42;597323;236;45415;-66
2022/07/15 05:17:02;;;;;;;;;;;;;;;21.57;77.33;96970.77;597300;237;66121;-66
2022/07/15 05:19:30;;;;;;;;;;;;;;;21.57;77.32;96972.66;597320;237;65098;-66
2022/07/15 05:21:58;;;;;;;;;;;;;;;21.56;77.29;96963.84;597328;237;67846;-66
2022/07/15 05:24:28;;;;;;;;;;;;;;;21.58;77.46;96976.91;597249;236;44125;-68
2022/07/15 05:26:57;;;;;;;;;;;;;;;21.57;77.61;96959.28;597327;237;65053;-70
2022/07/15 05:29:24;;;;;;;;;;;;;;;21.57;77.57;96964.62;597323;237;65050;-65
2022/07/15 05:31:53;;;;;;;;;;;;;;;21.57;77.86;96970.77;597262;237;67767;-65
2022/07/15 05:34:20;;;;;;;;;;;;;;;21.57;77.88;96964.62;597312;237;63010;-65
2022/07/15 05:36:48;;;;;;;;;;;;;;;21.57;77.63;96970.77;597315;237;66840;-65
2022/07/15 05:39:17;;;;;;;;;;;;;;;21.56;77.66;96969.19;597303;237;67716;-66
2022/07/15 05:41:45;;;;;;;;;;;;;;;21.57;77.62;96964.62;597295;237;63119;-66
2022/07/15 05:44:12;;;;;;;;;;;;;;;21.57;77.71;96969.98;597303;237;67281;-66
2022/07/15 05:46:41;;;;;;;;;;;;;;;21.58;77.74;96960.87;597199;237;43248;-66
2022/07/15 05:49:10;;;;;;;;;;;;;;;21.57;77.70;96964.62;596600;237;62763;-67
2022/07/15 05:51:38;;;;;;;;;;;;;;;21.58;77.90;96963.55;597855;235;66986;-67
2022/07/15 05:54:06;;;;;;;;;;;;;;;21.57;77.71;96967.30;598389;237;65048;-65
2022/07/15 05:56:34;;;;;;;;;;;;;;;21.58;77.93;96968.89;600575;236;62646;-66
2022/07/15 05:59:02;;;;;;;;;;;;;;;21.58;77.85;96968.89;601571;236;67011;-66
2022/07/15 06:01:31;;;;;;;;;;;;;;;21.56;78.12;96958.49;601573;235;45207;-65
2022/07/15 06:04:00;;;;;;;;;;;;;;;21.57;78.18;96954.73;601258;236;64876;-67
2022/07/15 06:06:27;;;;;;;;;;;;;;;21.56;78.28;96963.84;601573;236;64728;-65
2022/07/15 06:08:55;;;;;;;;;;;;;;;21.57;78.28;96953.94;601627;236;64893;-65
2022/07/15 06:11:23;;;;;;;;;;;;;;;21.58;78.50;96958.20;601602;236;65759;-66
2022/07/15 06:13:51;;;;;;;;;;;;;;;21.57;77.64;96953.94;601683;236;66563;-72
2022/07/15 06:16:19;;;;;;;;;;;;;;;21.56;77.71;96958.49;601550;236;67714;-72
2022/07/15 06:18:48;;;;;;;;;;;;;;;21.57;74.92;96954.73;601676;236;65275;-70
2022/07/15 06:21:15;;;;;;;;;;;;;;;21.60;76.53;96948.03;601654;236;67338;-72
2022/07/15 06:23:44;;;;;;;;;;;;;;;21.60;77.00;96954.17;601648;236;64402;-72
2022/07/15 06:26:12;;;;;;;;;;;;;;;21.61;78.24;96946.98;601638;236;64916;-69
2022/07/15 06:28:41;;;;;;;;;;;;;;;21.60;78.70;96950.70;601603;236;48438;-71
2022/07/15 06:31:09;;;;;;;;;;;;;;;21.59;79.05;96944.56;601605;236;67287;-70
2022/07/15 06:33:36;;;;;;;;;;;;;;;21.59;78.95;96943.77;601501;236;62646;-65
2022/07/15 06:36:05;;;;;;;;;;;;;;;21.60;78.96;96942.69;601684;236;67879;-66
2022/07/15 06:38:32;;;;;;;;;;;;;;;21.60;78.95;96940.01;601597;236;67037;-69
2022/07/15 06:41:00;;;;;;;;;;;;;;;21.61;79.12;96944.30;601653;236;62731;-67
2022/07/15 06:43:28;;;;;;;;;;;;;;;21.61;79.08;96952.32;601713;236;67214;-68
2022/07/15 06:46:12;;;;;;;;;;;;;;;21.61;79.11;96945.09;601608;236;45845;-68
2022/07/15 06:48:41;;;;;;;;;;;;;;;21.61;79.12;96938.95;601637;236;65079;-75
2022/07/15 06:51:09;;;;;;;;;;;;;;;21.62;79.17;96941.33;601411;236;66745;-76
2022/07/15 06:53:37;;;;;;;;;;;;;;;21.61;79.16;96937.07;601579;236;66791;-75
2022/07/15 06:56:05;;;;;;;;;;;;;;;21.61;79.32;96933.60;594629;238;62864;-75
2022/07/15 06:58:32;;;;;;;;;;;;;;;21.62;79.38;96935.19;594471;238;65073;-76
2022/07/15 07:01:00;;;;;;;;;;;;;;;21.62;79.26;96930.64;594390;238;66897;-75
2022/07/15 07:03:28;;;;;;;;;;;;;;;21.62;79.27;96935.98;594434;238;65650;-73
2022/07/15 07:05:57;;;;;;;;;;;;;;;21.62;79.20;96927.17;594465;238;67270;-74
2022/07/15 07:08:25;;;;;;;;;;;;;;;21.63;79.18;96936.78;594411;238;66865;-73
2022/07/15 07:10:53;;;;;;;;;;;;;;;21.63;79.00;96931.43;594488;238;62621;-74
2022/07/15 07:13:20;;;;;;;;;;;;;;;21.64;78.84;96933.05;594460;238;67301;-74
2022/07/15 07:15:48;;;;;;;;;;;;;;;21.64;78.73;96933.05;594432;238;67149;-74
2022/07/15 07:18:15;;;;;;;;;;;;;;;21.62;78.78;96925.28;594320;238;63055;-74
2022/07/15 07:20:43;;;;;;;;;;;;;;;21.63;78.63;96929.55;594265;238;67179;-74
2022/07/15 07:23:11;;;;;;;;;;;;;;;21.64;78.47;96925.02;594301;238;68568;-74
2022/07/15 07:25:39;;;;;;;;;;;;;;;21.63;78.55;96929.55;594470;238;65015;-73
2022/07/15 07:28:06;;;;;;;;;;;;;;;21.65;78.51;96935.43;593860;238;67355;-74
2022/07/15 07:30:34;;;;;;;;;;;;;;;21.65;78.58;96934.64;594122;238;65054;-74
2022/07/15 07:33:03;;;;;;;;;;;;;;;21.64;78.65;96925.02;594333;237;62916;-73
2022/07/15 07:35:32;;;;;;;;;;;;;;;21.65;78.60;96924.73;594318;238;47294;-73
2022/07/15 07:38:00;;;;;;;;;;;;;;;21.65;78.58;96923.94;594446;238;66787;-75
2022/07/15 07:40:27;;;;;;;;;;;;;;;21.65;78.46;96926.61;594422;238;65086;-73
2022/07/15 07:42:56;;;;;;;;;;;;;;;21.65;78.20;96921.27;594308;238;67124;-76
2022/07/15 07:45:24;;;;;;;;;;;;;;;21.65;78.24;96927.41;594418;238;67179;-74
2022/07/15 07:47:53;;;;;;;;;;;;;;;21.66;78.26;96930.88;594424;238;62587;-73
2022/07/15 07:50:21;;;;;;;;;;;;;;;21.66;78.20;96925.52;594397;238;64857;-74
2022/07/15 07:52:48;;;;;;;;;;;;;;;21.65;78.37;96921.27;594288;238;64878;-74
2022/07/15 07:55:16;;;;;;;;;;;;;;;21.66;78.46;96930.88;594507;238;62855;-75
2022/07/15 07:57:50;;;;;;;;;;;;;;;21.67;78.30;96927.14;594484;238;67012;-75
2022/07/15 08:00:18;;;;;;;;;;;;;;;21.66;78.31;96926.34;594181;238;65000;-75
2022/07/15 08:02:46;;;;;;;;;;;;;;;21.66;78.28;96921.00;595006;238;63820;-74
2022/07/15 08:05:14;;;;;;;;;;;;;;;21.67;78.31;96916.45;594801;238;66748;-72
2022/07/15 08:07:42;;;;;;;;;;;;;;;21.67;78.42;96917.23;595067;238;67061;-73
2022/07/15 08:10:11;;;;;;;;;;;;;;;21.67;78.62;96919.12;594819;237;63004;-73
2022/07/15 08:12:39;;;;;;;;;;;;;;;21.67;78.72;96911.89;595000;238;67462;-73
2022/07/15 08:15:10;;;;;;;;;;;;;;;21.67;78.70;96916.45;594602;238;66938;-73
2022/07/15 08:17:38;;;;;;;;;;;;;;;21.68;78.57;96918.03;594869;238;65120;-73
2022/07/15 08:20:09;;;;;;;;;;;;;;;21.68;78.58;96915.36;594793;238;49402;-70
2022/07/15 08:25:58;;;;;;;;;;;;;;;21.82;72.38;96908.30;594826;238;37300;-73
2022/07/15 08:28:25;;;;;;;;;;;;;;;21.81;74.13;96906.71;594987;238;67201;-73
2022/07/15 08:30:54;;;;;;;;;;;;;;;21.81;74.24;96912.06;595046;238;65333;-65
2022/07/15 08:33:22;;;;;;;;;;;;;;;21.81;75.28;96909.39;594981;238;64925;-65
2022/07/15 08:35:50;;;;;;;;;;;;;;;21.81;76.04;96912.06;595025;238;64696;-65
2022/07/15 08:38:17;;;;;;;;;;;;;;;21.81;76.71;96908.59;595055;238;66797;-66
2022/07/15 08:40:45;;;;;;;;;;;;;;;21.80;76.93;96910.47;594988;238;65111;-67
2022/07/15 08:43:12;;;;;;;;;;;;;;;21.82;76.98;96918.20;595074;238;64676;-68
2022/07/15 08:45:43;;;;;;;;;;;;;;;21.81;77.00;96909.39;595082;238;64727;-68
2022/07/15 08:48:11;;;;;;;;;;;;;;;21.82;76.64;96913.64;595036;238;63012;-67
2022/07/15 08:50:38;;;;;;;;;;;;;;;21.81;72.54;96909.39;595004;238;66826;-65
2022/07/15 08:53:06;;;;;;;;;;;;;;;21.82;74.43;96908.30;595005;238;66830;-69
2022/07/15 08:55:34;;;;;;;;;;;;;;;21.79;75.16;96903.51;594990;238;64967;-65
2022/07/15 08:58:01;;;;;;;;;;;;;;;21.79;76.10;96906.18;595069;238;67264;-67
2022/07/15 09:00:29;;;;;;;;;;;;;;;21.78;76.65;96901.92;595029;238;67340;-70
2022/07/15 09:03:00;;;;;;;;;;;;;;;21.78;77.22;96909.16;595067;238;65152;-70
2022/07/15 09:05:29;;;;;;;;;;;;;;;21.77;72.83;96905.69;594956;238;65065;-70
2022/07/15 09:08:05;;;;;;;;;;;;;;;21.79;69.88;96900.83;594827;238;66995;-65
2022/07/15 09:10:44;;;;;;;;;;;;;;;21.81;73.42;96900.56;594961;238;65056;-73
2022/07/15 09:13:12;;;;;;;;;;;;;;;21.80;76.89;96898.95;595052;238;67287;-75
2022/07/15 09:15:41;;;;;;;;;;;;;;;21.77;77.73;96900.33;595063;238;67023;-74
2022/07/15 09:18:10;;;;;;;;;;;;;;;21.75;77.73;96896.34;595038;238;63050;-75
2022/07/15 09:20:38;;;;;;;;;;;;;;;21.74;77.73;96890.16;594951;238;66911;-74
2022/07/15 09:23:06;;;;;;;;;;;;;;;21.73;77.64;96888.58;594980;238;66877;-74
2022/07/15 09:25:34;;;;;;;;;;;;;;;21.73;77.66;96893.92;594881;238;63067;-75
2022/07/15 09:28:03;;;;;;;;;;;;;;;21.73;77.74;96885.91;595050;238;67581;-75
2022/07/15 09:33:45;;;;;;;;;;;;;;;21.73;77.99;96884.02;595036;238;65195;-73
2022/07/15 09:36:16;;;;;;;;;;;;;;;21.73;77.99;96884.02;594687;238;64866;-74
2022/07/15 09:38:45;;;;;;;;;;;;;;;21.73;77.98;96888.58;594990;238;65025;-74
2022/07/15 09:41:14;;;;;;;;;;;;;;;21.72;78.02;96882.44;595018;238;63235;-75
2022/07/15 09:43:46;;;;;;;;;;;;;;;21.72;78.03;96879.77;594928;238;64946;-74
2022/07/15 09:46:14;;;;;;;;;;;;;;;21.72;78.02;96879.77;594828;238;64922;-75
2022/07/15 09:48:43;;;;;;;;;;;;;;;21.72;78.00;96876.30;595043;238;62878;-76
2022/07/15 09:51:11;;;;;;;;;;;;;;;21.72;77.97;96882.44;594937;238;67238;-73
2022/07/15 09:53:40;;;;;;;;;;;;;;;21.72;78.03;96885.11;594992;238;65688;-74
2022/07/15 09:56:10;;;;;;;;;;;;;;;21.73;78.11;96875.20;594932;238;65142;-73
2022/07/15 09:58:39;;;;;;;;;;;;;;;21.73;78.06;96869.86;594660;238;67271;-73
2022/07/15 10:01:07;;;;;;;;;;;;;;;21.73;78.07;96865.30;595068;238;64986;-74
2022/07/15 10:03:35;;;;;;;;;;;;;;;21.73;78.10;96869.86;594905;238;65095;-70
2022/07/15 10:06:03;;;;;;;;;;;;;;;21.72;74.44;96868.27;594701;238;67246;-69
2022/07/15 10:08:31;;;;;;;;;;;;;;;21.77;69.73;96862.89;594668;238;67636;-74
2022/07/15 10:10:59;;;;;;;;;;;;;;;21.80;70.09;96861.50;594955;238;64920;-75
2022/07/15 10:13:34;;;;;;;;;;;;;;;21.82;73.41;96865.50;594937;238;48278;-73
2022/07/15 10:16:18;;;;;;;;;;;;;;;21.81;74.73;96863.12;594903;238;67164;-72
2022/07/15 10:18:59;;;;;;;;;;;;;;;21.79;74.95;96866.06;594791;238;65129;-74
2022/07/15 10:21:37;;;;;;;;;;;;;;;21.79;75.04;96865.27;594701;238;67068;-74
2022/07/15 10:24:06;;;;;;;;;;;;;;;21.79;76.50;96859.91;595016;238;65033;-75
2022/07/15 10:26:51;;;;;;;;;;;;;;;21.77;76.55;96856.71;594881;238;63061;-76
2022/07/15 10:29:18;;;;;;;;;;;;;;;21.77;76.78;96854.04;594040;238;65041;-74
2022/07/15 10:31:47;;;;;;;;;;;;;;;21.76;77.12;96855.92;594967;238;65029;-74
2022/07/15 10:34:17;;;;;;;;;;;;;;;21.77;77.21;96849.52;594133;238;65018;-74
2022/07/15 10:36:56;;;;;;;;;;;;;;;21.76;77.05;96853.24;595003;238;64598;-74
2022/07/15 10:39:26;;;;;;;;;;;;;;;21.77;76.95;96852.19;595018;238;66825;-74
2022/07/15 10:41:56;;;;;;;;;;;;;;;21.77;76.86;96846.84;594804;238;63058;-74
2022/07/15 10:44:24;;;;;;;;;;;;;;;21.77;76.90;96854.86;594843;238;65484;-75
2022/07/15 10:47:12;;;;;;;;;;;;;;;21.77;76.95;96852.19;595012;238;64811;-75
2022/07/15 10:49:43;;;;;;;;;;;;;;;21.78;76.54;96845.75;572538;247;65065;-75
2022/07/15 10:52:17;;;;;;;;;;;;;;;21.77;76.59;96846.02;566671;250;67289;-73
2022/07/15 10:54:46;;;;;;;;;;;;;;;21.77;76.35;96844.16;575268;241;67065;-73
2022/07/15 10:57:16;;;;;;;;;;;;;;;21.79;76.50;96849.22;596351;238;62894;-74
2022/07/15 10:59:51;;;;;;;;;;;;;;;21.79;76.28;96841.98;596195;238;67213;-74
2022/07/15 11:02:20;;;;;;;;;;;;;;;21.80;72.82;96840.92;595991;238;66867;-76
2022/07/15 11:04:48;;;;;;;;;;;;;;;21.80;75.46;96840.92;596303;238;65093;-78
2022/07/15 11:07:17;;;;;;;;;;;;;;;21.81;77.02;96845.19;595956;238;67372;-75
2022/07/15 11:09:48;;;;;;;;;;;;;;;21.80;76.84;96840.10;595901;238;63798;-76
2022/07/15 11:12:17;;;;;;;;;;;;;;;21.78;76.60;96837.72;596324;238;65053;-76
2022/07/15 11:14:46;;;;;;;;;;;;;;;21.79;75.87;96838.52;596204;238;65098;-76
2022/07/15 11:17:16;;;;;;;;;;;;;;;21.79;75.80;96844.66;596308;238;67139;-76
2022/07/15 11:19:48;;;;;;;;;;;;;;;21.88;71.90;96837.64;596339;238;65188;-76
2022/07/15 11:22:17;;;;;;;;;;;;;;;21.91;73.35;96842.43;596373;238;64987;-76
2022/07/15 11:24:45;;;;;;;;;;;;;;;21.88;74.46;96836.83;596334;238;67886;-71
2022/07/15 11:27:13;;;;;;;;;;;;;;;21.87;74.92;96841.38;596325;238;65064;-75
2022/07/15 11:29:42;;;;;;;;;;;;;;;21.86;75.15;96845.14;596394;238;67217;-76
2022/07/15 11:32:10;;;;;;;;;;;;;;;21.85;76.20;96846.23;596126;238;65358;-76
2022/07/15 11:34:39;;;;;;;;;;;;;;;21.83;76.49;96848.39;596357;238;62916;-75
2022/07/15 11:37:07;;;;;;;;;;;;;;;21.83;76.81;96843.03;596269;238;65109;-76
2022/07/15 11:39:34;;;;;;;;;;;;;;;21.82;76.52;96833.39;596419;238;64942;-77
2022/07/15 11:44:51;;;;;;;;;;;;;;;21.81;76.67;96837.16;596332;238;67485;-74
2022/07/15 11:47:19;;;;;;;;;;;;;;;21.81;77.53;96842.51;596253;238;64815;-77
2022/07/15 11:49:47;;;;;;;;;;;;;;;21.81;78.13;96836.37;596261;238;63023;-77
2022/07/15 11:52:25;;;;;;;;;;;;;;;21.80;78.66;96824.88;596250;238;64707;-77
2022/07/15 11:54:55;;;;;;;;;;;;;;;21.80;78.93;96826.73;596003;238;49125;-77
2022/07/15 11:57:23;;;;;;;;;;;;;;;21.78;78.95;96829.70;594429;238;62957;-77
2022/07/15 11:59:58;;;;;;;;;;;;;;;21.79;79.12;96831.28;594447;238;67356;-75
2022/07/15 12:02:26;;;;;;;;;;;;;;;21.79;79.06;96823.26;594443;238;67169;-77
2022/07/15 12:05:04;;;;;;;;;;;;;;;21.79;79.07;96820.58;594416;238;65023;-75
2022/07/15 12:07:45;;;;;;;;;;;;;;;21.78;78.83;96819.00;594354;238;65025;-76
2022/07/15 12:10:14;;;;;;;;;;;;;;;21.78;78.24;96813.65;594471;238;67242;-75
2022/07/15 12:12:48;;;;;;;;;;;;;;;21.79;77.85;96825.14;594419;238;65183;-75
2022/07/15 12:15:13;;;;;;;;;;;;;;;21.80;77.72;96824.05;593874;238;65020;-72
2022/07/15 12:17:40;;;;;;;;;;;;;;;21.80;77.52;96824.88;594452;238;65110;-74
2022/07/15 12:20:09;;;;;;;;;;;;;;;21.81;78.51;96826.45;594331;238;65044;-76
2022/07/15 12:22:36;;;;;;;;;;;;;;;21.81;78.54;96821.11;594444;238;67261;-75
2022/07/15 12:25:04;;;;;;;;;;;;;;;21.80;78.87;96819.52;594429;238;67107;-75
2022/07/15 12:27:36;;;;;;;;;;;;;;;21.80;78.40;96816.03;594005;238;65181;-76
2022/07/15 12:30:08;;;;;;;;;;;;;;;21.81;77.78;96818.44;594483;238;67257;-77
2022/07/15 12:32:36;;;;;;;;;;;;;;;21.81;77.24;96810.41;594432;238;67109;-76
2022/07/15 12:35:05;;;;;;;;;;;;;;;21.82;77.21;96811.20;594407;238;63905;-76
2022/07/15 12:37:34;;;;;;;;;;;;;;;21.82;77.21;96817.34;594533;238;67254;-75
2022/07/15 12:40:06;;;;;;;;;;;;;;;21.83;77.28;96818.95;594529;238;66546;-76
2022/07/15 12:42:51;;;;;;;;;;;;;;;21.83;77.48;96812.81;594434;238;66063;-75
2022/07/15 12:45:26;;;;;;;;;;;;;;;21.82;77.78;96811.99;594496;238;64397;-75
2022/07/15 12:48:01;;;;;;;;;;;;;;;21.82;77.82;96814.67;594412;238;67112;-74
2022/07/15 12:50:30;;;;;;;;;;;;;;;21.82;77.95;96811.99;594440;238;65074;-76
2022/07/15 12:52:58;;;;;;;;;;;;;;;21.89;71.51;96817.83;594487;238;67103;-75
2022/07/15 12:55:27;;;;;;;;;;;;;;;21.93;73.76;96821.55;594622;238;66899;-74
2022/07/15 12:58:05;;;;;;;;;;;;;;;21.93;74.37;96816.20;595059;238;65181;-73
2022/07/15 13:00:33;;;;;;;;;;;;;;;21.94;70.68;96815.11;594595;238;66989;-76
2022/07/15 13:03:08;;;;;;;;;;;;;;;21.94;73.03;96815.11;594986;238;67100;-77
2022/07/15 13:05:39;;;;;;;;;;;;;;;21.93;73.90;96813.53;594855;238;65106;-74
2022/07/15 13:08:11;;;;;;;;;;;;;;;21.92;73.66;96808.45;595007;238;66638;-76
2022/07/15 13:10:40;;;;;;;;;;;;;;;21.90;73.69;96808.71;594956;238;67171;-75
2022/07/15 13:13:09;;;;;;;;;;;;;;;21.91;73.65;96806.86;595018;238;63087;-77
2022/07/15 13:15:36;;;;;;;;;;;;;;;21.90;73.61;96811.39;594969;238;65380;-77